createdAt,value
2023-02-13T00:01:04.326Z,35.30
2023-02-13T00:03:32.878Z,34.60
2023-02-13T00:06:02.104Z,36.47
2023-02-13T00:08:30.128Z,38.25
2023-02-13T00:10:58.218Z,34.22
2023-02-13T00:13:26.436Z,36.10
2023-02-13T00:15:58.254Z,35.58
2023-02-13T00:18:26.074Z,35.55
2023-02-13T00:21:02.790Z,36.70
2023-02-13T00:23:32.252Z,31.73
2023-02-13T00:26:00.061Z,35.35
2023-02-13T00:28:29.382Z,34.72
2023-02-13T00:31:04.622Z,35.50
2023-02-13T00:33:34.127Z,34.25
2023-02-13T00:36:10.003Z,34.53
2023-02-13T00:38:38.946Z,35.10
2023-02-13T00:41:07.514Z,31.80
2023-02-13T00:43:36.132Z,36.50
2023-02-13T00:46:04.762Z,32.20
2023-02-13T00:48:35.362Z,33.10
2023-02-13T00:51:03.871Z,33.45
2023-02-13T00:53:33.168Z,32.97
2023-02-13T00:56:01.273Z,33.33
2023-02-13T00:58:29.261Z,33.60
2023-02-13T01:00:59.178Z,32.80
2023-02-13T01:03:27.383Z,34.08
2023-02-13T01:05:55.561Z,34.92
2023-02-13T01:08:23.451Z,35.70
2023-02-13T01:10:52.624Z,32.45
2023-02-13T01:13:21.086Z,34.75
2023-02-13T01:15:49.829Z,35.80
2023-02-13T01:18:19.537Z,33.45
2023-02-13T01:20:58.088Z,35.50
2023-02-13T01:23:26.295Z,34.75
2023-02-13T01:25:56.447Z,34.67
2023-02-13T01:28:26.704Z,35.63
2023-02-13T01:30:57.514Z,34.63
2023-02-13T01:33:27.449Z,35.38
2023-02-13T01:35:55.485Z,37.40
2023-02-13T01:38:23.457Z,37.35
2023-02-13T01:40:54.376Z,34.47
2023-02-13T01:43:26.353Z,35.30
2023-02-13T01:45:58.167Z,40.78
2023-02-13T01:48:27.704Z,34.85
2023-02-13T01:51:00.134Z,36.28
2023-02-13T01:53:30.464Z,31.25
2023-02-13T01:56:02.345Z,35.53
2023-02-13T01:58:34.920Z,33.20
2023-02-13T02:01:04.253Z,35.63
2023-02-13T02:03:36.356Z,36.63
2023-02-13T02:06:09.011Z,37.60
2023-02-13T02:08:36.969Z,35.40
2023-02-13T02:11:09.775Z,32.13
2023-02-13T02:13:39.004Z,37.20
2023-02-13T02:16:10.646Z,31.92
2023-02-13T02:18:38.482Z,35.15
2023-02-13T02:21:28.387Z,33.20
2023-02-13T02:24:49.845Z,35.33
2023-02-13T02:27:30.198Z,33.10
2023-02-13T02:30:28.348Z,32.05
2023-02-13T02:33:10.829Z,33.67
2023-02-13T02:35:45.543Z,35.63
2023-02-13T02:38:32.488Z,38.92
2023-02-13T02:41:07.964Z,36.13
2023-02-13T02:43:49.052Z,34.97
2023-02-13T02:46:23.255Z,31.90
2023-02-13T02:49:14.964Z,36.67
2023-02-13T02:51:49.648Z,36.80
2023-02-13T02:57:10.533Z,34.42
2023-02-13T02:59:59.192Z,34.05
2023-02-13T03:02:45.355Z,32.58
2023-02-13T03:05:39.180Z,36.08
2023-02-13T03:08:07.822Z,36.07
2023-02-13T03:11:01.501Z,35.10
2023-02-13T03:13:40.401Z,38.10
2023-02-13T03:16:31.256Z,34.47
2023-02-13T03:19:17.259Z,36.72
2023-02-13T03:22:07.409Z,36.17
2023-02-13T03:24:42.174Z,36.17
2023-02-13T03:27:13.472Z,35.03
2023-02-13T03:30:04.729Z,34.38
2023-02-13T03:32:38.134Z,35.75
2023-02-13T03:35:38.043Z,33.20
2023-02-13T03:38:13.401Z,36.75
2023-02-13T03:41:05.858Z,33.83
2023-02-13T03:43:40.127Z,32.67
2023-02-13T03:46:08.549Z,37.28
2023-02-13T03:49:04.394Z,37.00
2023-02-13T03:51:35.986Z,38.28
2023-02-13T03:54:09.254Z,35.60
2023-02-13T03:56:58.485Z,34.00
2023-02-13T03:59:31.288Z,35.47
2023-02-13T04:02:02.746Z,37.47
2023-02-13T04:04:37.925Z,34.53
2023-02-13T04:07:07.715Z,39.03
2023-02-13T04:09:39.890Z,34.92
2023-02-13T04:12:14.986Z,39.28
2023-02-13T04:14:48.598Z,37.53
2023-02-13T04:17:21.161Z,37.05
2023-02-13T04:19:49.645Z,38.25
2023-02-13T04:22:17.506Z,39.92
2023-02-13T04:24:46.846Z,41.00
2023-02-13T04:27:16.828Z,36.53
2023-02-13T04:29:44.816Z,39.38
2023-02-13T04:32:14.281Z,36.92
2023-02-13T04:34:42.992Z,40.10
2023-02-13T04:37:10.894Z,38.08
2023-02-13T04:39:38.709Z,38.03
2023-02-13T04:42:07.899Z,36.22
2023-02-13T04:44:37.270Z,38.22
2023-02-13T04:47:05.329Z,42.03
2023-02-13T04:49:33.278Z,44.33
2023-02-13T04:52:02.789Z,38.10
2023-02-13T04:54:30.656Z,44.35
2023-02-13T04:57:00.424Z,42.38
2023-02-13T04:59:29.567Z,38.50
2023-02-13T05:01:59.295Z,41.63
2023-02-13T05:04:27.186Z,38.28
2023-02-13T05:06:55.023Z,37.95
2023-02-13T05:09:22.836Z,47.75
2023-02-13T05:11:53.018Z,40.63
2023-02-13T05:14:21.547Z,43.10
2023-02-13T05:16:51.478Z,39.53
2023-02-13T05:19:19.324Z,41.67
2023-02-13T05:22:04.739Z,40.50
2023-02-13T05:24:32.781Z,45.35
2023-02-13T05:27:00.553Z,42.67
2023-02-13T05:29:28.402Z,39.40
2023-02-13T05:31:59.825Z,41.65
2023-02-13T05:34:29.750Z,41.30
2023-02-13T05:36:58.163Z,40.47
2023-02-13T05:39:26.135Z,42.25
2023-02-13T05:41:55.844Z,44.55
2023-02-13T05:44:23.822Z,44.47
2023-02-13T05:46:53.281Z,45.33
2023-02-13T05:49:23.162Z,45.60
2023-02-13T05:51:52.466Z,45.20
2023-02-13T05:54:20.769Z,40.22
2023-02-13T05:56:48.762Z,43.25
2023-02-13T05:59:16.700Z,42.95
2023-02-13T06:01:44.594Z,44.13
2023-02-13T06:04:12.831Z,46.22
2023-02-13T06:06:42.784Z,42.45
2023-02-13T06:09:10.776Z,47.08
2023-02-13T06:11:39.675Z,37.88
2023-02-13T06:14:07.531Z,45.65
2023-02-13T06:16:35.446Z,47.28
2023-02-13T06:19:03.343Z,48.72
2023-02-13T06:21:31.138Z,42.95
2023-02-13T06:24:00.601Z,45.40
2023-02-13T06:26:32.281Z,43.60
2023-02-13T06:29:04.545Z,48.08
2023-02-13T06:31:33.608Z,51.72
2023-02-13T06:34:01.456Z,42.38
2023-02-13T06:36:29.406Z,46.22
2023-02-13T06:38:57.255Z,40.97
2023-02-13T06:41:27.956Z,42.20
2023-02-13T06:43:55.694Z,47.50
2023-02-13T06:46:23.616Z,45.05
2023-02-13T06:48:51.437Z,45.80
2023-02-13T06:51:19.257Z,48.42
2023-02-13T06:53:49.586Z,43.70
2023-02-13T06:56:17.697Z,46.70
2023-02-13T06:58:47.239Z,46.58
2023-02-13T07:01:15.190Z,46.70
2023-02-13T07:03:43.097Z,44.63
2023-02-13T07:06:10.912Z,48.65
2023-02-13T07:08:41.678Z,45.17
2023-02-13T07:11:09.440Z,46.33
2023-02-13T07:13:37.163Z,43.58
2023-02-13T07:16:07.197Z,46.53
2023-02-13T07:18:36.500Z,48.40
2023-02-13T07:21:05.767Z,48.13
2023-02-13T07:23:33.668Z,41.58
2023-02-13T07:26:01.908Z,47.83
2023-02-13T07:28:30.757Z,47.40
2023-02-13T07:30:58.935Z,46.05
2023-02-13T07:33:28.525Z,45.58
2023-02-13T07:35:58.526Z,48.40
2023-02-13T07:38:26.310Z,52.97
2023-02-13T07:40:55.546Z,46.13
2023-02-13T07:43:23.601Z,44.92
2023-02-13T07:45:55.593Z,42.78
2023-02-13T07:48:23.491Z,46.85
2023-02-13T07:50:52.487Z,43.72
2023-02-13T07:53:20.377Z,42.47
2023-02-13T07:55:48.113Z,39.47
2023-02-13T07:58:15.850Z,45.88
2023-02-13T08:00:43.967Z,42.47
2023-02-13T08:03:11.858Z,43.28
2023-02-13T08:05:40.845Z,45.42
2023-02-13T08:08:10.023Z,44.95
2023-02-13T08:10:55.607Z,45.03
2023-02-13T08:13:23.504Z,42.05
2023-02-13T08:15:51.250Z,42.03
2023-02-13T08:18:20.173Z,43.42
2023-02-13T08:20:48.540Z,42.60
2023-02-13T08:23:17.840Z,41.80
2023-02-13T08:25:47.600Z,41.28
2023-02-13T08:28:15.608Z,42.30
2023-02-13T08:30:44.759Z,41.28
2023-02-13T08:33:12.520Z,45.35
2023-02-13T08:35:40.644Z,43.35
2023-02-13T08:38:08.504Z,40.40
2023-02-13T08:40:38.526Z,38.35
2023-02-13T08:43:08.536Z,41.40
2023-02-13T08:45:36.743Z,47.83
2023-02-13T08:48:05.185Z,42.65
2023-02-13T08:50:33.951Z,39.67
2023-02-13T08:53:04.559Z,40.90
2023-02-13T08:55:33.091Z,37.63
2023-02-13T08:58:02.831Z,38.78
2023-02-13T09:00:31.579Z,39.60
2023-02-13T09:03:02.216Z,41.33
2023-02-13T09:05:31.817Z,41.80
2023-02-13T09:08:01.509Z,38.80
2023-02-13T09:10:29.494Z,39.30
2023-02-13T09:12:57.245Z,37.03
2023-02-13T09:15:26.662Z,32.58
2023-02-13T09:17:54.416Z,36.05
2023-02-13T09:20:22.355Z,38.20
2023-02-13T09:22:50.274Z,36.25
2023-02-13T09:25:19.959Z,34.22
2023-02-13T09:27:47.723Z,37.88
2023-02-13T09:30:23.554Z,34.78
2023-02-13T09:32:54.090Z,34.95
2023-02-13T09:35:22.598Z,37.90
2023-02-13T09:37:51.438Z,33.30
2023-02-13T09:40:22.681Z,33.45
2023-02-13T09:42:51.259Z,37.03
2023-02-13T09:45:20.170Z,38.33
2023-02-13T09:47:48.400Z,36.33
2023-02-13T09:50:20.356Z,48.05
2023-02-13T09:52:48.957Z,40.50
2023-02-13T09:55:18.441Z,43.15
2023-02-13T09:57:51.498Z,36.45
2023-02-13T10:00:23.103Z,38.17
2023-02-13T10:03:01.330Z,36.78
2023-02-13T10:05:57.404Z,35.85
2023-02-13T10:08:38.216Z,44.10
2023-02-13T10:11:16.704Z,36.08
2023-02-13T10:13:52.829Z,40.38
2023-02-13T10:16:22.116Z,40.72
2023-02-13T10:18:53.110Z,37.00
2023-02-13T10:21:24.516Z,36.85
2023-02-13T10:23:56.331Z,35.53
2023-02-13T10:26:42.536Z,36.08
2023-02-13T10:29:34.126Z,36.10
2023-02-13T10:32:05.513Z,39.47
2023-02-13T10:34:39.075Z,37.10
2023-02-13T10:37:15.587Z,36.05
2023-02-13T10:39:45.859Z,37.47
2023-02-13T10:42:23.201Z,36.97
2023-02-13T10:45:01.381Z,38.47
2023-02-13T10:47:41.243Z,35.15
2023-02-13T10:50:19.091Z,34.28
2023-02-13T10:52:55.037Z,31.08
2023-02-13T10:55:32.619Z,34.75
2023-02-13T10:58:09.725Z,33.58
2023-02-13T11:00:43.141Z,37.10
2023-02-13T11:03:19.936Z,30.15
2023-02-13T11:05:47.852Z,37.15
2023-02-13T11:08:21.769Z,31.02
2023-02-13T11:10:49.926Z,31.27
2023-02-13T11:13:19.561Z,30.70
2023-02-13T11:16:02.717Z,28.25
2023-02-13T11:18:34.197Z,27.92
2023-02-13T11:21:10.480Z,31.05
2023-02-13T11:23:43.130Z,29.77
2023-02-13T11:26:15.297Z,32.22
2023-02-13T11:28:50.073Z,30.23
2023-02-13T11:31:25.155Z,31.20
2023-02-13T11:33:53.431Z,31.42
2023-02-13T11:36:26.828Z,28.20
2023-02-13T11:39:04.792Z,29.75
2023-02-13T11:41:38.304Z,29.20
2023-02-13T11:44:07.000Z,32.45
2023-02-13T11:46:45.149Z,32.88
2023-02-13T11:49:18.471Z,27.52
2023-02-13T11:51:47.377Z,30.37
2023-02-13T11:54:41.140Z,28.40
2023-02-13T11:57:21.143Z,27.15
2023-02-13T11:59:50.653Z,32.90
2023-02-13T12:02:21.140Z,29.10
2023-02-13T12:04:53.792Z,31.15
2023-02-13T12:07:24.887Z,42.65
2023-02-13T12:10:01.994Z,34.42
2023-02-13T12:12:39.402Z,35.10
2023-02-13T12:15:17.387Z,31.58
2023-02-13T12:17:46.113Z,32.08
2023-02-13T12:20:15.464Z,31.60
2023-02-13T12:22:54.340Z,38.42
2023-02-13T12:25:43.287Z,60.90
2023-02-13T12:28:14.378Z,37.03
2023-02-13T12:31:14.133Z,34.65
2023-02-13T12:33:56.872Z,40.70
2023-02-13T12:36:27.957Z,31.00
2023-02-13T12:39:06.191Z,28.45
2023-02-13T12:41:40.333Z,25.30
2023-02-13T12:46:58.414Z,32.72
2023-02-13T12:49:43.074Z,26.98
2023-02-13T12:52:22.325Z,27.70
2023-02-13T12:55:01.596Z,25.98
2023-02-13T12:57:41.210Z,32.92
2023-02-13T13:00:18.726Z,26.13
2023-02-13T13:02:58.107Z,26.45
2023-02-13T13:05:35.255Z,26.02
2023-02-13T13:08:18.759Z,26.83
2023-02-13T13:10:57.753Z,28.05
2023-02-13T13:13:38.985Z,25.98
2023-02-13T13:16:11.491Z,30.58
2023-02-13T13:18:51.168Z,30.85
2023-02-13T13:21:27.474Z,35.42
2023-02-13T13:24:00.521Z,26.70
2023-02-13T13:26:35.171Z,30.73
2023-02-13T13:29:07.165Z,23.45
2023-02-13T13:31:38.089Z,27.70
2023-02-13T13:34:10.081Z,23.83
2023-02-13T13:36:44.439Z,21.80
2023-02-13T13:39:26.821Z,24.40
2023-02-13T13:42:02.506Z,26.27
2023-02-13T13:44:49.008Z,23.10
2023-02-13T13:47:25.546Z,21.25
2023-02-13T13:49:55.330Z,22.67
2023-02-13T13:52:27.334Z,23.30
2023-02-13T13:54:56.759Z,23.40
2023-02-13T13:57:25.310Z,23.50
2023-02-13T14:00:04.346Z,25.30
2023-02-13T14:02:45.406Z,21.35
2023-02-13T14:05:29.340Z,23.88
2023-02-13T14:07:58.640Z,25.45
2023-02-13T14:11:09.281Z,24.27
2023-02-13T14:13:39.978Z,24.55
2023-02-13T14:16:12.275Z,20.45
2023-02-13T14:18:46.772Z,22.60
2023-02-13T14:21:23.846Z,22.00
2023-02-13T14:23:53.385Z,22.55
2023-02-13T14:26:30.078Z,23.33
2023-02-13T14:29:22.564Z,21.85
2023-02-13T14:32:07.284Z,31.05
2023-02-13T14:34:37.799Z,22.48
2023-02-13T14:37:21.060Z,24.30
2023-02-13T14:40:12.035Z,30.02
2023-02-13T14:42:40.439Z,21.27
2023-02-13T14:45:16.311Z,24.70
2023-02-13T14:47:51.036Z,26.40
2023-02-13T14:50:22.927Z,31.10
2023-02-13T14:52:51.820Z,32.20
2023-02-13T14:55:30.113Z,22.83
2023-02-13T14:58:06.124Z,25.65
2023-02-13T15:00:41.038Z,25.33
2023-02-13T15:03:21.205Z,25.95
2023-02-13T15:05:52.352Z,21.50
2023-02-13T15:08:21.809Z,24.60
2023-02-13T15:10:51.683Z,28.45
2023-02-13T15:13:22.379Z,32.03
2023-02-13T15:15:53.641Z,33.58
2023-02-13T15:18:26.104Z,31.55
2023-02-13T15:20:56.606Z,26.85
2023-02-13T15:23:26.609Z,45.22
2023-02-13T15:25:59.262Z,31.98
2023-02-13T15:28:27.966Z,24.95
2023-02-13T15:30:58.907Z,26.42
2023-02-13T15:33:29.994Z,23.17
2023-02-13T15:35:59.831Z,24.48
2023-02-13T15:38:29.493Z,23.65
2023-02-13T15:41:02.493Z,25.65
2023-02-13T15:43:35.775Z,26.33
2023-02-13T15:46:06.687Z,46.50
2023-02-13T15:48:39.824Z,92.45
2023-02-13T15:51:08.658Z,73.00
2023-02-13T15:53:37.552Z,73.45
2023-02-13T15:56:13.919Z,76.07
2023-02-13T15:58:42.568Z,44.58
2023-02-13T16:01:11.642Z,44.20
2023-02-13T16:03:42.048Z,34.35
2023-02-13T16:06:14.925Z,33.67
2023-02-13T16:08:47.483Z,26.95
2023-02-13T16:11:21.620Z,35.20
2023-02-13T16:16:45.718Z,26.00
2023-02-13T16:19:30.570Z,24.20
2023-02-13T16:22:00.970Z,24.42
2023-02-13T16:24:29.229Z,24.95
2023-02-13T16:26:57.588Z,27.52
2023-02-13T16:29:29.547Z,27.15
2023-02-13T16:32:07.568Z,23.15
2023-02-13T16:34:39.572Z,24.90
2023-02-13T16:37:28.817Z,25.15
2023-02-13T16:39:56.662Z,22.83
2023-02-13T16:42:25.116Z,25.05
2023-02-13T16:45:22.144Z,24.65
2023-02-13T16:47:50.954Z,21.67
2023-02-13T16:50:20.297Z,25.27
2023-02-13T16:52:48.060Z,23.10
2023-02-13T16:55:17.282Z,23.42
2023-02-13T16:57:49.165Z,28.17
2023-02-13T17:00:21.898Z,25.10
2023-02-13T17:02:50.805Z,30.85
2023-02-13T17:05:28.174Z,30.33
2023-02-13T17:07:59.337Z,33.15
2023-02-13T17:10:29.109Z,31.88
2023-02-13T17:12:58.411Z,41.15
2023-02-13T17:15:27.864Z,38.65
2023-02-13T17:17:56.835Z,41.50
2023-02-13T17:20:28.203Z,41.70
2023-02-13T17:22:57.596Z,40.50
2023-02-13T17:25:27.321Z,37.08
2023-02-13T17:27:57.719Z,30.48
2023-02-13T17:30:28.137Z,32.03
2023-02-13T17:32:58.859Z,32.88
2023-02-13T17:35:28.023Z,31.35
2023-02-13T17:37:55.909Z,35.35
2023-02-13T17:40:30.214Z,30.70
2023-02-13T17:42:59.325Z,32.08
2023-02-13T17:45:29.077Z,36.80
2023-02-13T17:47:58.066Z,30.25
2023-02-13T17:50:30.342Z,33.90
2023-02-13T17:52:58.945Z,35.30
2023-02-13T17:55:31.267Z,36.70
2023-02-13T17:58:00.066Z,39.58
2023-02-13T18:00:31.512Z,35.63
2023-02-13T18:03:00.868Z,37.70
2023-02-13T18:05:31.667Z,38.03
2023-02-13T18:08:02.221Z,35.38
2023-02-13T18:10:32.250Z,37.60
2023-02-13T18:13:04.776Z,35.72
2023-02-13T18:15:33.885Z,45.28
2023-02-13T18:18:02.558Z,43.00
2023-02-13T18:20:32.872Z,43.17
2023-02-13T18:23:00.760Z,40.33
2023-02-13T18:25:29.231Z,40.33
2023-02-13T18:27:57.804Z,37.00
2023-02-13T18:30:26.022Z,39.40
2023-02-13T18:32:59.120Z,43.80
2023-02-13T18:35:27.421Z,42.92
2023-02-13T18:38:00.593Z,41.40
2023-02-13T18:40:28.556Z,42.75
2023-02-13T18:42:56.330Z,44.08
2023-02-13T18:45:24.781Z,46.88
2023-02-13T18:47:52.912Z,41.63
2023-02-13T18:50:21.092Z,44.97
2023-02-13T18:52:49.112Z,48.60
2023-02-13T18:55:18.600Z,46.88
2023-02-13T18:57:48.265Z,49.72
2023-02-13T19:00:17.607Z,45.00
2023-02-13T19:02:45.912Z,53.63
2023-02-13T19:05:13.736Z,46.33
2023-02-13T19:07:41.626Z,48.67
2023-02-13T19:10:10.046Z,49.15
2023-02-13T19:12:40.851Z,50.88
2023-02-13T19:15:09.641Z,57.72
2023-02-13T19:17:38.745Z,51.90
2023-02-13T19:20:08.413Z,54.25
2023-02-13T19:22:36.454Z,50.65
2023-02-13T19:25:04.955Z,51.00
2023-02-13T19:27:33.195Z,55.40
2023-02-13T19:30:03.313Z,60.83
2023-02-13T19:32:33.772Z,57.17
2023-02-13T19:35:01.991Z,50.55
2023-02-13T19:37:35.768Z,53.75
2023-02-13T19:40:11.235Z,52.03
2023-02-13T19:42:40.276Z,54.47
2023-02-13T19:45:14.412Z,50.75
2023-02-13T19:47:43.069Z,52.72
2023-02-13T19:50:11.647Z,51.95
2023-02-13T19:52:40.032Z,52.78
2023-02-13T19:55:08.969Z,53.05
2023-02-13T19:57:37.278Z,54.13
2023-02-13T20:00:06.055Z,53.80
2023-02-13T20:02:43.736Z,61.75
2023-02-13T20:05:11.643Z,59.63
2023-02-13T20:07:39.627Z,61.80
2023-02-13T20:10:09.722Z,55.38
2023-02-13T20:12:38.100Z,56.10
2023-02-13T20:15:06.783Z,56.63
2023-02-13T20:17:37.255Z,55.30
2023-02-13T20:20:08.124Z,52.80
2023-02-13T20:22:37.144Z,57.75
2023-02-13T20:25:05.554Z,54.88
2023-02-13T20:27:34.311Z,61.00
2023-02-13T20:30:06.688Z,56.45
2023-02-13T20:32:36.058Z,57.75
2023-02-13T20:35:04.395Z,56.70
2023-02-13T20:37:35.360Z,60.83
2023-02-13T20:40:03.603Z,56.28
2023-02-13T20:42:33.748Z,67.13
2023-02-13T20:45:01.834Z,71.05
2023-02-13T20:47:29.928Z,64.22
2023-02-13T20:49:57.936Z,65.45
2023-02-13T20:52:25.802Z,60.45
2023-02-13T20:54:55.430Z,65.65
2023-02-13T20:57:23.680Z,69.25
2023-02-13T20:59:53.073Z,59.90
2023-02-13T21:02:21.145Z,64.80
2023-02-13T21:04:51.338Z,67.22
2023-02-13T21:07:19.923Z,65.30
2023-02-13T21:09:48.403Z,65.30
2023-02-13T21:12:17.770Z,63.58
2023-02-13T21:14:45.697Z,66.28
2023-02-13T21:17:13.993Z,69.53
2023-02-13T21:19:44.290Z,69.88
2023-02-13T21:22:12.457Z,63.03
2023-02-13T21:24:41.169Z,60.45
2023-02-13T21:27:10.429Z,69.18
2023-02-13T21:29:40.484Z,66.47
2023-02-13T21:32:09.331Z,61.65
2023-02-13T21:34:37.589Z,63.55
2023-02-13T21:37:05.626Z,60.78
2023-02-13T21:39:33.518Z,56.72
2023-02-13T21:42:01.593Z,60.58
2023-02-13T21:44:29.383Z,59.45
2023-02-13T21:46:58.963Z,59.22
2023-02-13T21:49:27.261Z,56.20
2023-02-13T21:51:55.349Z,59.28
2023-02-13T21:54:23.172Z,55.42
2023-02-13T21:56:51.797Z,55.38
2023-02-13T21:59:19.667Z,55.17
2023-02-13T22:01:50.380Z,51.33
2023-02-13T22:04:20.158Z,52.78
2023-02-13T22:06:51.057Z,46.10
2023-02-13T22:09:20.624Z,47.22
2023-02-13T22:11:49.962Z,50.85
2023-02-13T22:14:19.361Z,49.17
2023-02-13T22:16:48.216Z,49.78
2023-02-13T22:19:17.046Z,49.22
2023-02-13T22:21:46.291Z,47.42
2023-02-13T22:24:14.416Z,48.38
2023-02-13T22:26:45.239Z,52.33
2023-02-13T22:29:14.862Z,49.47
2023-02-13T22:31:43.489Z,53.55
2023-02-13T22:34:13.367Z,54.45
2023-02-13T22:36:42.012Z,54.45
2023-02-13T22:39:12.019Z,58.15
2023-02-13T22:41:40.127Z,54.10
2023-02-13T22:44:08.243Z,55.08
2023-02-13T22:46:36.396Z,54.08
2023-02-13T22:49:04.237Z,54.92
2023-02-13T22:51:34.529Z,53.33
2023-02-13T22:54:02.761Z,50.90
2023-02-13T22:56:32.766Z,53.22
2023-02-13T22:59:00.981Z,49.95
2023-02-13T23:01:30.057Z,52.70
2023-02-13T23:03:59.834Z,50.88
2023-02-13T23:06:28.548Z,53.47
2023-02-13T23:08:58.323Z,47.17
2023-02-13T23:11:44.751Z,50.33
2023-02-13T23:14:14.450Z,52.15
2023-02-13T23:17:00.134Z,54.63
2023-02-13T23:19:29.878Z,51.85
2023-02-13T23:21:58.159Z,51.53
2023-02-13T23:24:26.022Z,52.42
2023-02-13T23:26:54.150Z,50.45
2023-02-13T23:29:23.457Z,54.50
2023-02-13T23:31:54.633Z,54.53
2023-02-13T23:34:23.734Z,47.75
2023-02-13T23:36:51.576Z,46.22
2023-02-13T23:39:20.026Z,45.60
2023-02-13T23:41:48.107Z,42.50
2023-02-13T23:44:15.994Z,43.65
2023-02-13T23:46:45.730Z,41.63
2023-02-13T23:49:13.617Z,42.75
2023-02-13T23:51:41.518Z,44.45
2023-02-13T23:54:11.842Z,41.90
2023-02-13T23:56:39.883Z,41.60
2023-02-13T23:59:07.795Z,42.55
